Time;durP1;ratioP1;P1;durP2;ratioP2;P2;SDS_P1;SDS_P2;PMS_P1;PMS_P2;Temp;Humidity;BMP_temperature;BMP_pressure;BME280_temperature;BME280_humidity;BME280_pressure;Samples;Min_cycle;Max_cycle;Signal;HPM_P1;HPM_P2
2021/04/11 00:01:27;;;;;;;113.85;43.45;;;;;;;3.44;55.13;101968.37;1734252;78;22736;-72
2021/04/11 00:03:55;;;;;;;73.40;33.80;;;;;;;3.44;56.02;101974.41;1752655;78;21026;-73
2021/04/11 00:06:23;;;;;;;66.77;29.90;;;;;;;3.44;56.17;101964.03;1763772;76;21364;-78
2021/04/11 00:08:51;;;;;;;71.80;33.95;;;;;;;3.42;56.50;101968.38;1771852;77;23293;-73
2021/04/11 00:11:21;;;;;;;58.90;32.80;;;;;;;3.42;57.07;101970.96;1735354;78;20943;-72
2021/04/11 00:13:53;;;;;;;60.12;31.85;;;;;;;3.40;57.66;101975.33;1726132;77;21611;-75
2021/04/11 00:18:56;;;;;;;53.83;31.00;;;;;;;3.35;58.74;101975.78;1738906;77;22678;-75
2021/04/11 00:21:25;;;;;;;56.48;31.17;;;;;;;3.25;58.54;101978.05;1712340;80;20980;-74
2021/04/11 00:23:53;;;;;;;52.53;30.88;;;;;;;3.19;59.19;101984.12;1730919;77;22274;-74
2021/04/11 00:26:22;;;;;;;113.15;47.53;;;;;;;3.14;59.06;101980.71;1717531;80;21718;-77
2021/04/11 00:28:51;;;;;;;68.15;32.83;;;;;;;3.08;58.63;101982.89;1733023;80;21470;-73
2021/04/11 00:31:18;;;;;;;48.63;27.82;;;;;;;3.07;59.33;101986.81;1721222;78;21524;-72
2021/04/11 00:33:47;;;;;;;45.20;27.40;;;;;;;3.03;58.22;101985.96;1722086;79;21474;-78
2021/04/11 00:36:18;;;;;;;42.75;25.43;;;;;;;3.02;58.29;101992.44;1687172;80;20920;-73
2021/04/11 00:38:47;;;;;;;48.33;28.50;;;;;;;3.02;57.51;102006.70;1715493;77;21494;-77
2021/04/11 00:41:27;;;;;;;55.10;29.25;;;;;;;3.00;58.24;102004.14;1714199;79;21405;-77
2021/04/11 00:43:57;;;;;;;85.12;37.38;;;;;;;3.01;57.57;102007.58;1707130;79;21161;-74
2021/04/11 00:46:45;;;;;;;66.30;31.45;;;;;;;3.01;58.23;102003.69;1682103;80;21143;-73
2021/04/11 00:49:20;;;;;;;71.85;34.58;;;;;;;3.00;58.00;102011.91;1655752;79;21388;-74
2021/04/11 00:51:55;;;;;;;148.25;52.55;;;;;;;3.03;58.16;101997.62;1842873;74;22847;-75
2021/04/11 00:54:24;;;;;;;94.58;37.48;;;;;;;3.00;58.84;102001.95;1832095;75;20966;-77
2021/04/11 00:56:53;;;;;;;55.70;29.12;;;;;;;2.99;58.58;102006.73;1806719;77;21198;-74
2021/04/11 00:59:22;;;;;;;68.37;28.42;;;;;;;2.98;58.41;102001.98;1829509;75;21001;-75
2021/04/11 01:01:52;;;;;;;74.03;35.28;;;;;;;2.97;59.40;102009.77;1828009;76;20941;-74
2021/04/11 01:04:20;;;;;;;65.40;30.62;;;;;;;2.93;59.22;102004.16;1803047;76;20996;-73
2021/04/11 01:06:53;;;;;;;64.10;34.23;;;;;;;2.91;59.97;101998.98;1778349;79;20998;-74
2021/04/11 01:09:26;;;;;;;48.92;26.68;;;;;;;2.84;60.23;102000.75;1765950;76;21150;-73
2021/04/11 01:11:57;;;;;;;;;;;;;;;2.78;60.71;102005.98;1761533;75;21001;-76
2021/04/11 01:14:28;;;;;;;144.40;53.68;;;;;;;2.73;60.06;101998.65;1851816;76;20146;-75
2021/04/11 01:16:57;;;;;;;68.25;36.20;;;;;;;2.72;60.58;101998.69;1833760;78;21379;-74
2021/04/11 01:19:34;;;;;;;56.13;31.00;;;;;;;2.67;61.31;101999.56;1833002;77;21400;-76
2021/04/11 01:22:33;;;;;;;45.80;25.12;;;;;;;2.60;61.70;102008.64;1787606;75;22296;-76
2021/04/11 01:28:12;;;;;;;122.80;47.73;;;;;;;2.51;60.77;102004.80;1833800;74;20937;-77
2021/04/11 01:30:41;;;;;;;79.07;35.68;;;;;;;2.48;60.22;102004.39;1801922;75;20933;-73
2021/04/11 01:33:14;;;;;;;106.00;44.63;;;;;;;2.48;61.09;102003.09;1786069;76;21092;-73
2021/04/11 01:35:42;;;;;;;124.22;50.03;;;;;;;2.45;61.25;102004.41;1816746;75;21376;-74
2021/04/11 01:38:12;;;;;;;73.52;35.88;;;;;;;2.44;60.81;102006.12;1836055;75;20974;-76
2021/04/11 01:41:11;;;;;;;65.83;33.35;;;;;;;2.43;61.30;102007.44;1817756;75;20948;-74
2021/04/11 01:43:43;;;;;;;80.67;36.55;;;;;;;2.41;61.08;102002.26;1781372;76;20969;-74
2021/04/11 01:46:19;;;;;;;144.45;53.00;;;;;;;2.38;61.34;102000.98;1796051;78;20947;-74
2021/04/11 01:48:47;;;;;;;121.95;49.40;;;;;;;2.36;61.33;101999.27;1806330;75;22220;-73
2021/04/11 01:51:19;;;;;;;79.67;38.30;;;;;;;2.34;61.47;102001.01;1789993;76;21031;-69
2021/04/11 01:53:48;;;;;;;64.07;34.23;;;;;;;2.33;61.78;102005.73;1814588;76;21371;-73
2021/04/11 01:56:18;;;;;;;73.90;34.98;;;;;;;2.32;62.18;101996.27;1808769;75;21021;-78
2021/04/11 01:58:48;;;;;;;62.25;34.48;;;;;;;2.28;62.48;101996.25;1839122;75;20928;-77
2021/04/11 02:01:29;;;;;;;67.60;34.85;;;;;;;2.26;62.40;101996.69;1845846;75;20993;-77
2021/04/11 02:04:00;;;;;;;104.80;43.42;;;;;;;2.23;62.65;101995.86;1844775;75;21144;-79
2021/04/11 02:06:30;;;;;;;73.52;37.70;;;;;;;2.19;62.98;102000.17;1856702;75;21258;-72
2021/04/11 02:12:18;;;;;;;119.20;49.00;;;;;;;2.14;63.05;101992.86;1828186;73;22865;-72
2021/04/11 02:14:49;;;;;;;88.25;41.60;;;;;;;2.06;63.04;101992.87;1766483;76;21237;-78
2021/04/11 02:17:17;;;;;;;71.07;34.70;;;;;;;2.02;63.37;101989.00;1748898;78;21429;-62
2021/04/11 02:19:54;;;;;;;55.35;30.43;;;;;;;2.00;63.54;101991.61;1749842;78;21020;-78
2021/04/11 02:22:39;;;;;;;;;;;;;;;;;;;;;
2021/04/11 02:25:17;;;;;;;51.92;29.23;;;;;;;1.94;63.44;101993.35;1746770;77;21366;-75
2021/04/11 02:27:48;;;;;;;52.58;30.20;;;;;;;1.91;63.87;101997.22;1761710;77;20955;-73
2021/04/11 02:30:18;;;;;;;89.15;36.63;;;;;;;1.88;63.97;101997.23;1786986;76;21376;-74
2021/04/11 02:32:46;;;;;;;61.08;32.03;;;;;;;1.82;63.87;101996.39;1768750;75;20937;-78
2021/04/11 02:35:17;;;;;;;72.80;35.60;;;;;;;1.76;63.60;102009.77;1747712;78;20910;-74
2021/04/11 02:37:46;;;;;;;77.20;35.90;;;;;;;1.70;63.67;102002.86;1708153;78;21559;-78
2021/04/11 02:40:19;;;;;;;66.53;31.82;;;;;;;1.66;63.82;102007.16;1720229;78;21020;-77
2021/04/11 02:42:50;;;;;;;59.93;29.75;;;;;;;1.65;63.91;102001.58;1749622;78;21264;-74
2021/04/11 02:45:23;;;;;;;75.90;38.08;;;;;;;1.66;64.34;102006.30;1694250;78;20943;-77
2021/04/11 02:47:54;;;;;;;98.92;40.52;;;;;;;1.65;64.29;102002.02;1750301;78;21182;-78
2021/04/11 02:50:25;;;;;;;56.10;29.82;;;;;;;1.65;63.99;102002.02;1768169;78;20975;-73
2021/04/11 02:53:02;;;;;;;57.20;28.83;;;;;;;1.65;64.19;102005.45;1742325;77;21203;-73
2021/04/11 02:55:35;;;;;;;51.15;26.75;;;;;;;1.65;64.33;102009.77;1755872;77;21401;-76
2021/04/11 02:58:24;;;;;;;45.98;26.90;;;;;;;1.62;64.49;102011.93;1788385;77;21041;-79
2021/04/11 03:01:07;;;;;;;53.42;29.12;;;;;;;1.60;64.29;102025.69;1734996;80;20941;-73
2021/04/11 03:04:15;;;;;;;62.25;31.95;;;;;;;1.56;63.91;102028.73;1739257;79;21525;-81
2021/04/11 03:06:48;;;;;;;54.88;28.02;;;;;;;1.55;64.17;102020.97;1732772;77;20903;-75
2021/04/11 03:09:25;;;;;;;56.25;31.12;;;;;;;1.52;64.50;102019.69;1784663;78;20959;-75
2021/04/11 03:11:55;;;;;;;59.90;30.23;;;;;;;1.51;64.74;102021.38;1784828;78;21650;-80
2021/04/11 03:14:30;;;;;;;65.22;32.95;;;;;;;1.51;64.74;102022.67;1782936;76;21309;-77
2021/04/11 03:17:07;;;;;;;202.57;74.62;;;;;;;1.51;64.90;102024.41;1700030;79;21066;-74
2021/04/11 03:19:59;;;;;;;77.72;36.33;;;;;;;1.49;64.99;102027.02;1754889;77;21058;-75
2021/04/11 03:22:29;;;;;;;41.15;20.95;;;;;;;1.44;65.07;102019.22;1764478;77;22119;-74
2021/04/11 03:24:58;;;;;;;46.73;21.93;;;;;;;1.41;65.30;102026.14;1751846;77;21027;-78
2021/04/11 03:27:37;;;;;;;47.05;23.80;;;;;;;1.38;65.40;102018.36;1709307;79;21456;-74
2021/04/11 03:30:15;;;;;;;38.65;20.97;;;;;;;1.37;65.38;102019.23;1751127;77;21552;-79
2021/04/11 03:32:47;;;;;;;68.05;31.42;;;;;;;1.36;65.45;102020.97;1774469;77;20953;-78
2021/04/11 03:35:19;;;;;;;105.52;49.20;;;;;;;1.39;65.24;102012.34;1796054;77;22125;-74
2021/04/11 03:38:02;;;;;;;170.53;68.07;;;;;;;1.42;64.87;102017.09;1781526;77;21102;-77
2021/04/11 03:40:33;;;;;;;62.13;30.95;;;;;;;1.48;64.52;102008.91;1752789;77;20986;-77
2021/04/11 03:43:12;;;;;;;57.35;24.10;;;;;;;1.51;64.34;102017.94;1736605;79;21062;31
2021/04/11 03:45:41;;;;;;;52.15;25.65;;;;;;;1.55;63.62;102024.41;1750077;79;20933;-74
2021/04/11 03:48:30;;;;;;;62.67;29.35;;;;;;;1.65;63.32;102023.55;1761873;78;21881;-80
2021/04/11 03:51:22;;;;;;;55.03;27.62;;;;;;;1.81;63.20;102029.57;1764901;78;20969;-61
2021/04/11 03:54:13;;;;;;;60.48;28.57;;;;;;;2.03;63.09;102020.50;1778856;78;20946;-75
2021/04/11 03:57:07;;;;;;;62.73;27.95;;;;;;;2.22;63.60;102025.17;1734725;76;20954;-75
2021/04/11 03:59:50;;;;;;;50.65;25.50;;;;;;;2.39;63.15;102022.55;1755079;78;25258;-74
2021/04/11 04:02:19;;;;;;;56.10;24.45;;;;;;;2.60;63.05;102028.95;1745008;78;22304;-74
2021/04/11 04:04:47;;;;;;;41.55;24.05;;;;;;;2.82;62.39;102038.75;1748678;79;21017;-75
2021/04/11 04:07:21;;;;;;;60.83;29.10;;;;;;;2.99;62.01;102040.41;1726341;77;21507;-74
2021/04/11 04:09:58;;;;;;;72.62;34.10;;;;;;;3.16;61.80;102045.48;1746370;78;21007;-74
2021/04/11 04:12:53;;;;;;;75.70;36.95;;;;;;;3.37;61.42;102048.38;1721478;80;21511;-73
2021/04/11 04:15:37;;;;;;;71.42;34.35;;;;;;;3.61;61.38;102054.68;1727810;78;21671;-72
2021/04/11 04:18:18;;;;;;;67.65;34.90;;;;;;;3.89;60.68;102057.03;1779022;77;23419;-73
2021/04/11 04:20:56;;;;;;;62.58;30.92;;;;;;;4.18;59.92;102061.08;1791134;75;21463;-73
2021/04/11 04:23:45;;;;;;;57.85;30.37;;;;;;;4.43;59.72;102065.16;1797433;76;21028;-73
2021/04/11 04:26:39;;;;;;;70.00;35.83;;;;;;;4.73;58.53;102070.86;1787234;77;21021;-74
2021/04/11 04:29:24;;;;;;;93.17;37.30;;;;;;;5.02;58.31;102074.83;1765803;78;21451;-79
2021/04/11 04:32:18;;;;;;;91.20;39.00;;;;;;;5.30;57.05;102076.16;1786659;75;20952;-74
2021/04/11 04:35:14;;;;;;;69.67;34.85;;;;;;;5.59;56.08;102080.06;1821530;74;20997;-77
2021/04/11 04:38:06;;;;;;;44.73;23.90;;;;;;;6.01;55.79;102081.58;1760859;78;20998;-76
2021/04/11 04:41:06;;;;;;;56.55;31.82;;;;;;;6.54;54.92;102077.58;1736601;77;20943;-76
2021/04/11 04:43:54;;;;;;;53.70;30.10;;;;;;;7.16;52.80;102075.81;1714145;82;21076;-76
2021/04/11 04:46:51;;;;;;;49.67;30.37;;;;;;;7.88;50.33;102085.88;1739944;76;21058;-77
2021/04/11 04:49:46;;;;;;;34.40;20.52;;;;;;;8.60;49.32;102085.28;1710340;80;20949;-76
2021/04/11 04:52:38;;;;;;;27.55;17.77;;;;;;;9.37;47.63;102076.47;1759715;77;21547;-77
2021/04/11 04:55:25;;;;;;;30.75;19.30;;;;;;;9.98;45.79;102076.20;1706179;78;21026;-80
2021/04/11 04:57:57;;;;;;;34.48;20.35;;;;;;;10.55;43.24;102069.00;1732005;78;21204;-76
2021/04/11 05:00:39;;;;;;;23.75;15.20;;;;;;;11.12;42.87;102069.03;1751611;80;21069;-76
2021/04/11 05:03:25;;;;;;;23.83;15.30;;;;;;;11.88;40.49;102060.77;1842858;74;22550;-65
2021/04/11 05:06:05;;;;;;;15.18;11.88;;;;;;;12.22;39.17;102055.73;1761228;75;21010;-77
2021/04/11 05:09:10;;;;;;;16.20;13.53;;;;;;;12.62;37.35;102049.16;1723825;83;21381;-75
2021/04/11 05:11:47;;;;;;;14.70;11.97;;;;;;;13.01;36.10;102054.37;1744597;82;20954;-76
2021/04/11 05:14:42;;;;;;;16.82;12.50;;;;;;;13.40;35.49;102056.03;1737973;77;21083;-81
2021/04/11 05:17:23;;;;;;;14.53;11.20;;;;;;;13.71;34.41;102043.13;1730788;80;20976;-85
2021/04/11 05:20:01;;;;;;;16.07;12.83;;;;;;;14.08;34.48;102042.11;1721371;79;21145;-77
2021/04/11 05:22:58;;;;;;;18.57;12.82;;;;;;;14.45;32.60;102034.42;1710680;79;21471;-81
2021/04/11 05:25:47;;;;;;;19.02;12.40;;;;;;;14.45;32.60;102034.42;1695285;80;21009;-79
2021/04/11 05:28:26;;;;;;;17.07;12.68;;;;;;;14.64;32.32;102038.26;1701201;81;21810;-78
2021/04/11 05:31:16;;;;;;;20.40;13.38;;;;;;;14.81;32.33;102045.27;1729263;79;20946;31
2021/04/11 05:33:49;;;;;;;18.00;12.53;;;;;;;14.93;31.75;102039.77;1737255;78;21364;-79
2021/04/11 05:37:04;;;;;;;17.23;12.28;;;;;;;15.16;31.92;102042.91;1667549;77;20980;-76
2021/04/11 05:39:48;;;;;;;15.55;12.68;;;;;;;15.52;32.04;102042.13;1707126;80;21021;-75
2021/04/11 05:42:43;;;;;;;17.85;12.82;;;;;;;16.00;31.43;102041.14;1720158;83;20973;-74
2021/04/11 05:45:41;;;;;;;20.08;13.58;;;;;;;16.22;30.20;102032.76;1759683;77;21361;-79
2021/04/11 05:48:42;;;;;;;19.32;13.62;;;;;;;16.33;30.44;102041.73;1739436;77;21085;-83
2021/04/11 05:51:15;;;;;;;16.60;13.08;;;;;;;16.52;30.28;102033.52;1704365;78;22239;-76
2021/04/11 05:54:01;;;;;;;19.77;12.80;;;;;;;16.81;29.85;102036.61;1670727;79;21702;-77
2021/04/11 05:56:44;;;;;;;21.12;13.43;;;;;;;17.09;29.81;102038.34;1709108;79;21023;-73
2021/04/11 05:59:20;;;;;;;19.77;12.18;;;;;;;17.40;29.51;102040.68;1707309;79;20963;-75
2021/04/11 06:01:56;;;;;;;21.42;12.47;;;;;;;17.66;29.40;102038.11;1719232;79;20951;-73
2021/04/11 06:04:36;;;;;;;16.02;11.83;;;;;;;17.78;29.35;102030.63;1708541;78;21431;-79
2021/04/11 06:07:24;;;;;;;14.55;10.13;;;;;;;17.92;28.87;102027.54;1718087;77;21090;-72
2021/04/11 06:10:16;;;;;;;14.87;10.65;;;;;;;18.13;28.86;102023.90;1700840;78;21377;-74
2021/04/11 06:13:13;;;;;;;13.93;10.28;;;;;;;18.30;28.49;102023.58;1720670;77;20947;-72
2021/04/11 06:15:51;;;;;;;13.35;10.28;;;;;;;18.47;28.49;102026.84;1758627;77;21019;31
2021/04/11 06:18:25;;;;;;;15.72;9.58;;;;;;;18.82;28.70;102028.33;1736112;79;21204;-72
2021/04/11 06:20:53;;;;;;;11.60;9.35;;;;;;;19.14;27.66;102025.98;1754412;76;21025;-77
2021/04/11 06:23:33;;;;;;;14.40;8.80;;;;;;;19.42;27.21;102030.56;1752255;76;21013;-72
2021/04/11 06:26:51;;;;;;;12.78;8.38;;;;;;;19.65;26.28;102032.81;1738422;76;20946;-72
2021/04/11 06:29:26;;;;;;;7.85;7.05;;;;;;;19.93;26.05;102032.08;1749474;78;20954;-71
2021/04/11 06:32:11;;;;;;;11.50;6.92;;;;;;;20.24;25.41;102031.88;1758955;78;21350;-71
2021/04/11 06:34:50;;;;;;;9.38;7.05;;;;;;;20.41;25.16;102026.52;1746444;78;20995;-72
2021/04/11 06:37:21;;;;;;;11.05;7.25;;;;;;;20.45;25.07;102026.19;1739252;78;21041;-73
2021/04/11 06:39:50;;;;;;;11.43;6.70;;;;;;;20.70;24.68;102023.76;1760198;76;21002;-72
2021/04/11 06:42:43;;;;;;;12.50;6.62;;;;;;;20.91;23.91;102021.64;1734800;78;21108;-73
2021/04/11 06:45:34;;;;;;;15.32;6.55;;;;;;;21.05;23.09;102019.17;1731126;79;21358;-78
2021/04/11 06:48:44;;;;;;;12.05;6.53;;;;;;;21.10;22.83;102015.66;1731297;79;20975;-76
2021/04/11 06:52:08;;;;;;;9.58;6.42;;;;;;;21.16;22.65;102007.13;1715761;79;20957;-75
2021/04/11 06:55:00;;;;;;;14.55;6.92;;;;;;;21.15;21.69;102019.28;1688228;80;21086;-76
2021/04/11 06:57:52;;;;;;;9.75;6.75;;;;;;;21.22;21.19;102012.45;1745994;81;20997;-73
2021/04/11 07:01:11;;;;;;;11.20;6.80;;;;;;;21.27;21.24;102009.75;1737095;77;22320;-80
2021/04/11 07:03:56;;;;;;;11.25;7.12;;;;;;;21.34;21.37;102014.09;1752442;76;21437;-75
2021/04/11 07:06:57;;;;;;;9.48;6.58;;;;;;;21.09;21.42;102013.45;1797902;78;20898;-77
2021/04/11 07:09:53;;;;;;;9.73;7.53;;;;;;;21.07;21.44;102010.56;1790757;77;21080;-76
2021/04/11 07:13:05;;;;;;;12.30;7.55;;;;;;;21.14;21.50;102022.41;1746028;79;20951;-75
2021/04/11 07:16:39;;;;;;;13.72;7.80;;;;;;;21.22;21.58;102012.45;1768442;81;20959;-76
2021/04/11 07:19:52;;;;;;;9.18;7.65;;;;;;;21.24;21.93;102008.69;1762464;78;21104;-83
2021/04/11 07:23:19;;;;;;;10.58;7.78;;;;;;;21.50;21.29;102013.21;1612442;87;21846;-75
2021/04/11 07:26:18;;;;;;;15.43;9.03;;;;;;;21.40;21.18;102010.07;1649880;86;20917;-78
2021/04/11 07:29:09;;;;;;;16.90;9.05;;;;;;;21.15;20.98;102009.45;1641009;86;21146;-76
2021/04/11 07:32:15;;;;;;;13.68;9.80;;;;;;;20.87;21.57;102002.86;1675674;81;21374;-86
2021/04/11 07:35:20;;;;;;;13.13;9.83;;;;;;;20.76;21.58;102009.06;1737979;79;20978;-77
2021/04/11 07:38:30;;;;;;;14.63;9.18;;;;;;;20.86;21.09;102002.02;1749784;80;21063;-72
2021/04/11 07:41:51;;;;;;;14.20;10.72;;;;;;;20.88;21.42;102014.75;1778928;80;21285;-77
2021/04/11 07:45:04;;;;;;;14.47;11.03;;;;;;;21.00;21.49;102009.38;1717131;83;20919;-74
2021/04/11 07:47:49;;;;;;;13.32;10.60;;;;;;;21.14;20.45;101998.41;1682254;84;21450;-75
2021/04/11 07:50:37;;;;;;;14.20;10.50;;;;;;;21.39;20.81;101994.55;1736558;79;21023;-75
2021/04/11 07:53:34;;;;;;;16.32;10.45;;;;;;;21.79;20.41;101991.66;1744416;79;21112;-72
2021/04/11 07:56:24;;;;;;;12.93;10.15;;;;;;;21.97;20.78;101997.27;1743246;78;20947;-76
2021/04/11 08:00:03;;;;;;;14.58;9.98;;;;;;;21.93;20.03;101994.00;1705189;80;20939;-77
2021/04/11 08:02:40;;;;;;;;;;;;;;;21.98;20.07;101983.76;1723226;82;21201;-79
2021/04/11 08:06:08;;;;;;;16.93;9.95;;;;;;;22.13;20.31;101978.41;1740189;82;20153;-77
2021/04/11 08:09:16;;;;;;;12.05;10.53;;;;;;;22.12;20.23;101974.06;1713973;83;21370;-78
2021/04/11 08:12:23;;;;;;;11.75;10.55;;;;;;;22.23;20.22;101958.92;1713306;83;20959;-78
2021/04/11 08:15:47;;;;;;;12.45;10.00;;;;;;;22.30;19.78;101963.61;1669704;80;20972;-80
2021/04/11 08:18:59;;;;;;;12.63;10.38;;;;;;;22.14;19.79;101962.76;1745859;82;21346;-77
2021/04/11 08:21:32;;;;;;;11.18;9.80;;;;;;;21.94;20.93;101962.30;1745829;82;20979;-78
2021/04/11 08:24:42;;;;;;;13.78;9.90;;;;;;;21.96;20.55;101938.97;1726515;82;20970;-73
2021/04/11 08:27:49;;;;;;;10.88;9.63;;;;;;;22.19;20.56;101950.80;1742469;78;20997;-84
2021/04/11 08:30:28;;;;;;;13.78;9.25;;;;;;;22.50;19.91;101944.46;1730406;79;21003;-74
2021/04/11 08:33:40;;;;;;;11.63;10.08;;;;;;;22.47;19.95;101935.86;1765207;80;21365;-72
2021/04/11 08:36:45;;;;;;;14.53;10.00;;;;;;;22.39;19.66;101925.00;1739072;78;20956;-75
2021/04/11 08:39:59;;;;;;;12.00;9.90;;;;;;;22.58;19.74;101913.50;1693813;80;20973;31
2021/04/11 08:42:56;;;;;;;9.23;8.15;;;;;;;22.65;19.52;101915.47;1703179;78;20987;-83
2021/04/11 08:45:36;;;;;;;14.98;9.55;;;;;;;22.65;19.94;101910.63;1753192;77;20945;-77
2021/04/11 08:48:30;;;;;;;10.75;9.03;;;;;;;22.89;20.07;101911.55;1754625;77;21292;-76
2021/04/11 08:51:03;;;;;;;11.12;9.33;;;;;;;23.01;19.49;101904.25;1754278;81;20952;-78
2021/04/11 08:53:50;;;;;;;13.60;9.70;;;;;;;23.05;18.94;101902.48;1742498;78;20963;-77
2021/04/11 08:56:40;;;;;;;9.55;8.55;;;;;;;22.88;19.66;101891.98;1695862;84;21412;-76
2021/04/11 08:59:16;;;;;;;9.93;8.95;;;;;;;22.87;19.34;101893.45;1691804;78;20910;-85
2021/04/11 09:02:02;;;;;;;14.65;9.03;;;;;;;22.82;19.67;101877.00;1761557;77;21437;-76
2021/04/11 09:04:38;;;;;;;9.03;8.13;;;;;;;22.80;19.61;101882.48;1705705;79;21022;-79
2021/04/11 09:07:36;;;;;;;12.85;9.08;;;;;;;23.04;19.16;101884.75;1754168;77;20946;-79
2021/04/11 09:10:55;;;;;;;12.03;8.75;;;;;;;23.08;18.88;101880.80;1722420;79;20955;-79
2021/04/11 09:13:45;;;;;;;13.20;8.70;;;;;;;22.96;19.77;101878.72;1733378;77;20963;-80
2021/04/11 09:16:43;;;;;;;10.63;8.33;;;;;;;22.81;18.35;101885.52;1821487;73;22891;-78
2021/04/11 09:19:30;;;;;;;10.43;7.87;;;;;;;22.68;18.55;101881.78;1743202;77;21008;-77
2021/04/11 09:22:40;;;;;;;12.68;7.50;;;;;;;22.68;18.96;101880.95;1788337;77;21386;-79
2021/04/11 09:25:23;;;;;;;9.55;8.63;;;;;;;22.69;19.55;101875.94;1768624;77;21340;-75
2021/04/11 09:28:49;;;;;;;9.28;8.38;;;;;;;22.62;19.16;101873.48;1762916;75;21072;-77
2021/04/11 09:31:35;;;;;;;7.87;7.08;;;;;;;22.77;19.28;101877.42;1783637;77;21511;-77
2021/04/11 09:34:29;;;;;;;14.00;7.58;;;;;;;22.98;19.53;101869.23;1762118;76;21333;-74
2021/04/11 09:37:57;;;;;;;8.83;7.97;;;;;;;22.99;19.47;101877.63;1765596;76;21191;-82
2021/04/11 09:41:15;;;;;;;9.08;7.25;;;;;;;23.13;18.62;101873.19;1754022;78;21071;-76
2021/04/11 09:44:22;;;;;;;10.78;8.10;;;;;;;23.03;18.92;101876.36;1706274;78;21507;-74
2021/04/11 09:47:18;;;;;;;8.78;7.33;;;;;;;22.93;19.05;101871.50;1734975;82;20897;-77
2021/04/11 09:58:13;;;;;;;;;;;;;;;;;;;;;
2021/04/11 10:04:08;;;;;;;7.15;6.45;;;;;;;22.92;18.96;101850.59;1696887;81;21511;-74
2021/04/11 10:15:06;;;;;;;8.40;6.17;;;;;;;22.77;19.19;101802.53;1874495;73;22979;-74
2021/04/11 10:18:15;;;;;;;10.30;7.28;;;;;;;22.67;19.20;101822.58;1750491;78;20986;-93
2021/04/11 10:21:58;;;;;;;30.62;8.63;;;;;;;22.69;19.30;101827.80;1685747;84;20986;-78
2021/04/11 10:24:45;;;;;;;10.40;7.22;;;;;;;22.50;18.71;101805.91;1669253;82;21129;31
2021/04/11 10:27:40;;;;;;;9.40;6.95;;;;;;;22.21;18.87;101813.41;1621096;84;20998;-77
2021/04/11 10:30:15;;;;;;;9.30;6.45;;;;;;;22.05;18.81;101805.91;1689804;85;21051;-77
2021/04/11 10:33:16;;;;;;;;;;;;;;;;;;;;;
2021/04/11 10:36:14;;;;;;;11.15;6.42;;;;;;;21.89;18.55;101815.80;1809421;77;22762;-78
2021/04/11 10:39:03;;;;;;;6.95;6.25;;;;;;;21.73;18.79;101812.31;1722698;77;21013;-87
2021/04/11 10:41:52;;;;;;;9.13;5.75;;;;;;;21.62;18.53;101803.08;1689814;85;22358;-86
2021/04/11 10:44:52;;;;;;;10.25;6.45;;;;;;;21.53;18.68;101795.87;1712006;79;21010;-79
2021/04/11 10:48:15;;;;;;;9.20;6.60;;;;;;;21.51;19.27;101796.50;1662989;82;20964;-85
2021/04/11 10:51:21;;;;;;;7.80;6.53;;;;;;;21.43;19.27;101793.19;1691137;82;21281;-79
2021/04/11 10:54:07;;;;;;;7.85;5.87;;;;;;;21.46;19.83;101803.58;1705449;79;20971;-74
2021/04/11 10:56:45;;;;;;;;;;;;;;;21.53;20.72;101792.72;1690603;79;21224;-82
2021/04/11 11:00:06;;;;;;;9.93;5.83;;;;;;;21.64;19.60;101782.92;1688316;81;20148;-69
2021/04/11 11:03:05;;;;;;;11.93;6.08;;;;;;;21.58;19.46;101778.12;1695278;80;21446;-77
2021/04/11 11:05:58;;;;;;;7.47;5.70;;;;;;;21.51;19.76;101771.98;1699634;80;20978;-76
2021/04/11 11:09:23;;;;;;;9.63;5.42;;;;;;;21.32;19.55;101766.53;1822071;74;22776;-80
2021/04/11 11:12:23;;;;;;;9.20;6.30;;;;;;;21.32;19.55;101766.53;1708572;79;21817;-77
2021/04/11 11:15:37;;;;;;;10.05;6.40;;;;;;;21.41;19.32;101767.12;1742598;78;21201;-73
2021/04/11 11:21:53;;;;;;;16.20;5.60;;;;;;;21.30;20.33;101736.50;1687655;79;21118;-74
2021/04/11 11:24:58;;;;;;;;;;;;;;;;;;;;;
2021/04/11 11:28:03;;;;;;;8.88;6.10;;;;;;;20.83;19.76;101735.64;1821903;74;22694;-75
2021/04/11 11:31:33;;;;;;;8.98;5.28;;;;;;;20.79;19.88;101747.55;1803550;77;20983;-75
2021/04/11 11:34:46;;;;;;;6.72;5.58;;;;;;;20.89;20.38;101753.77;1829094;78;22128;-72
2021/04/11 11:40:36;;;;;;;11.78;6.17;;;;;;;20.83;20.23;101740.98;1804974;76;20950;-75
2021/04/11 11:43:37;;;;;;;8.15;6.53;;;;;;;20.90;20.43;101742.13;1803977;76;20877;-75
2021/04/11 11:46:33;;;;;;;16.40;7.20;;;;;;;20.84;20.39;101729.81;1769713;78;20952;-73
2021/04/11 11:49:37;;;;;;;8.13;6.50;;;;;;;20.68;20.42;101724.46;1820569;76;22172;-73
2021/04/11 11:52:28;;;;;;;7.75;5.78;;;;;;;20.59;20.64;101725.75;1795870;76;21015;-74
2021/04/11 11:55:31;;;;;;;9.33;6.05;;;;;;;20.55;20.73;101723.78;1737848;78;21454;-73
2021/04/11 11:58:25;;;;;;;7.28;5.62;;;;;;;20.50;21.46;101716.18;1704689;78;21012;-72
2021/04/11 12:01:15;;;;;;;9.88;6.55;;;;;;;20.40;21.07;101715.26;1684405;79;20995;31
2021/04/11 12:03:44;;;;;;;9.20;7.67;;;;;;;20.23;21.62;101702.04;1694091;78;21469;-75
2021/04/11 12:06:26;;;;;;;12.68;7.15;;;;;;;20.05;21.17;101696.89;1715029;80;20984;-73
2021/04/11 12:09:22;;;;;;;11.30;6.35;;;;;;;19.85;21.81;101697.20;1725105;80;21035;-74
2021/04/11 12:12:14;;;;;;;10.95;6.42;;;;;;;19.63;21.69;101704.27;1810719;74;24702;-73
2021/04/11 12:15:26;;;;;;;9.28;6.85;;;;;;;19.50;22.49;101694.27;1787461;78;22044;-74
2021/04/11 12:18:18;;;;;;;7.92;6.22;;;;;;;19.38;21.96;101690.75;1775766;76;21348;-74
2021/04/11 12:21:09;;;;;;;8.15;6.30;;;;;;;19.26;22.72;101683.28;1743707;79;21174;-73
2021/04/11 12:24:04;;;;;;;7.92;6.20;;;;;;;19.18;22.09;101687.52;1781120;78;20915;-73
2021/04/11 12:26:33;;;;;;;6.00;5.37;;;;;;;19.02;22.24;101685.23;1785594;79;28082;-72
2021/04/11 12:29:10;;;;;;;9.88;5.12;;;;;;;18.89;23.00;101679.19;1809998;75;21075;-74
2021/04/11 12:32:06;;;;;;;8.75;5.30;;;;;;;18.78;23.32;101669.39;1791625;77;21377;-79
2021/04/11 12:36:02;;;;;;;8.68;5.60;;;;;;;18.65;23.59;101670.78;1778681;77;22689;-73
2021/04/11 12:38:39;;;;;;;8.33;5.47;;;;;;;18.58;23.44;101665.09;1717523;79;21046;-73
2021/04/11 12:41:48;;;;;;;10.15;5.12;;;;;;;18.52;22.90;101660.28;1666057;81;21500;-71
2021/04/11 12:44:46;;;;;;;5.90;4.55;;;;;;;18.39;23.28;101658.20;1682720;80;21007;-74
2021/04/11 12:47:40;;;;;;;7.25;4.87;;;;;;;18.25;22.75;101657.06;1707997;80;21000;-73
2021/04/11 12:50:15;;;;;;;;;;;;;;;18.16;23.10;101654.16;1667288;80;21069;-74
2021/04/11 12:53:23;;;;;;;7.97;4.90;;;;;;;18.08;23.08;101650.39;1642833;81;20177;-73
2021/04/11 12:55:55;;;;;;;8.03;4.72;;;;;;;17.96;23.37;101651.68;1691391;80;21665;-75
2021/04/11 12:58:32;;;;;;;7.37;4.90;;;;;;;17.91;23.43;101645.00;1703865;84;20940;-73
2021/04/11 13:01:22;;;;;;;4.87;4.05;;;;;;;17.83;22.71;101642.06;1721065;80;21026;-75
2021/04/11 13:04:15;;;;;;;6.87;4.72;;;;;;;17.83;22.71;101642.06;1720875;80;20972;-74
2021/04/11 13:06:55;;;;;;;5.62;4.33;;;;;;;17.73;22.74;101646.70;1714267;78;21026;31
2021/04/11 13:12:58;;;;;;;6.40;4.92;;;;;;;17.67;22.50;101639.19;1750150;77;22761;-74
2021/04/11 13:15:41;;;;;;;6.00;4.75;;;;;;;17.58;22.78;101647.34;1708819;81;21110;-74
2021/04/11 13:18:33;;;;;;;6.70;4.83;;;;;;;17.53;23.68;101642.02;1697589;80;21207;-74
2021/04/11 13:21:11;;;;;;;11.03;6.45;;;;;;;17.49;22.61;101624.14;1623566;88;21047;-75
2021/04/11 13:24:12;;;;;;;7.15;5.53;;;;;;;17.49;22.61;101624.14;1661248;80;21404;-74
2021/04/11 13:26:55;;;;;;;7.10;5.12;;;;;;;17.44;22.63;101624.97;1734698;78;20917;-72
2021/04/11 13:29:50;;;;;;;9.20;5.90;;;;;;;17.44;22.87;101614.85;1765090;78;21551;-73
2021/04/11 13:32:40;;;;;;;;;;;;;;;17.41;23.39;101614.59;1717741;78;21869;-73
2021/04/11 13:35:38;;;;;;;10.25;5.58;;;;;;;17.42;22.93;101610.97;1676814;80;21076;-74
2021/04/11 13:38:41;;;;;;;7.47;5.15;;;;;;;17.48;23.41;101606.55;1797683;74;22802;-72